AirNav   Everest Fuels
 
 1085 users online  

K11 Sam Riggs Airpark
Claremore, Oklahoma, USA

GOING TO CLAREMORE?


FAA INFORMATION EFFECTIVE 03 NOVEMBER 2022

Location

FAA Identifier: K11
Lat/Long: 36-13-05.4000N 095-39-06.8000W
36-13.090000N 095-39.113333W
36.2181667,-95.6518889
(estimated)
Elevation: 580 ft. / 177 m (estimated)
Variation: 06E (1985)
From city: 7 miles S of CLAREMORE, OK
Time zone: UTC -6 (UTC -5 during Daylight Saving Time)
Zip code: 74017

Airport Operations

Airport use: Open to the public
Activation date: 03/1980
Control tower: no
ARTCC: KANSAS CITY CENTER
FSS: MC ALESTER FLIGHT SERVICE STATION
NOTAMs facility: MLC (NOTAM-D service available)
Attendance: UNATNDD
Wind indicator: no
Segmented circle: no

Airport Communications

CTAF: 122.9
WX AWOS-3P at GCM (9 nm NE): 119.925 (918-343-0184)
WX ASOS at TUL (11 nm W): PHONE 918-831-6772
WX AWOS-3PT at H71 (16 nm E): 120.1 (918-476-0517)
WX ASOS at RVS (19 nm SW): 126.5 (918-299-0740)

Nearby radio navigation aids

VOR radial/distance  VOR name  Freq  Var
TULr071/6.7TULSA VORTAC114.4008E
OKMr010/33.2OKMULGEE VOR/DME114.9008E

 
NDB name  Hdg/Dist  Freq  Var  ID
OILLR055/13.633803ETU - ..-

Airport Services

Airframe service: NONE
Powerplant service: NONE
Bottled oxygen: NONE
Bulk oxygen: NONE

Runway Information

Runway 4/22

Dimensions: 2760 x 35 ft. / 841 x 11 m
Surface: turf, in poor condition
RY COVERED IN TALL GRASS & WEEDS. SURFACE ROUGH.
Operational restrictions: RY CLSD INDEFLY.
RUNWAY 4  RUNWAY 22
Latitude: 36-12.931000N36-13.194000N
Longitude: 095-39.240333W095-38.782333W
Traffic pattern: rightleft
Obstructions: 40 ft. trees, 105 ft. from runway, 2:1 slope to clear20 ft. trees, 120 ft. from runway, 6:1 slope to clear

Runway 18/36

Dimensions: 1550 x 110 ft. / 472 x 34 m
Surface: turf/L
RWY COVERED IN TALL GRASS & WEEDS. SURFACE ROUGH. RWY UNIDENTIFIABLE.
Operational restrictions: RY ENDS UNIDENTIFIABLE.
RUNWAY 18  RUNWAY 36
Traffic pattern: leftleft
Obstructions: 40 ft. tree, 45 ft. right of centerline49 ft. trees, 400 ft. from runway, 8:1 slope to clear

Airport Ownership and Management from official FAA records

Ownership: Privately-owned
Owner: CRAT PROPERTIES
P. O. BOX 1782
CLAREMORE, OK 74018
Phone 918-381-8900
Manager: RUSTIN POLK
10500 E. AIRPARK RD.
CLAREMORE, OK 74019
Phone 214-853-5751

Airport Operational Statistics

Aircraft based on the field: 1
Single engine airplanes: 1
    
Aircraft operations: 10/year *
100% local general aviation
* for 12-month period ending 19 November 2020

Additional Remarks

FOR CD CTC TULSA APCH AT 918-831-6714/6720.

Instrument Procedures

There are no published instrument procedures at K11.

Some nearby airports with instrument procedures:

KGCM - Claremore Regional Airport (9 nm NE)
KTUL - Tulsa International Airport (11 nm W)
H71 - Mid-America Industrial Airport (16 nm E)
KRVS - Tulsa Riverside Airport (19 nm SW)
H68 - Hefner-Easley Airport (21 nm SE)
 
Loc | Ops | Rwys | IFR | FBO | Links
Com | Nav | Svcs | Stats | Notes
Area around K11 (Sam Riggs Airpark)
 
Road maps at: MapQuest Bing Google
 
Aerial photo
No photo
 
Sectional chart

 
Airport distance calculator
Flying to Sam Riggs Airpark? Find the distance to fly.

From to K11

Sunrise and sunset
Times for 28-Nov-2022
 Local
(UTC-6)
 Zulu
(UTC)
Morning civil twilight06:4512:45
Sunrise07:1413:14
Sunset17:0823:08
Evening civil twilight17:3623:36

Current date and time
Zulu (UTC)  28-Nov-2022 23:32:10
Local (UTC-6)  28-Nov-2022 17:32:10
 
METAR
KGCM 
10nm NE 
282315Z AUTO 15011G17KT 10SM CLR 13/05 A2971 RMK AO2
KTUL 
11nm W 
282253Z 16013KT 10SM FEW130 BKN220 15/06 A2971 RMK AO2 PK WND 14028/2211 SLP060 T01500056
KH71 
16nm E 
282315Z AUTO 16011KT 10SM CLR 13/05 A2972 RMK AO2
KRVS 
19nm SW 
282253Z 17010KT 10SM CLR 15/05 A2971 RMK AO2 SLP067 T01500050
TAF
KTUL 
11nm W 
281728Z 2818/2918 16014G23KT P6SM SCT250 FM290400 17019G28KT P6SM BKN250 WS020/19050KT FM291400 19018G28KT P6SM SCT025
KRVS 
19nm SW 
281728Z 2818/2918 17013G21KT P6SM SCT250 FM290400 17016G25KT P6SM BKN250 WS020/19050KT FM291400 19016G25KT P6SM SCT025
NOTAMs
Click for the latest NOTAMs
NOTAMs are issued by the DoD/FAA and will open in a separate window not controlled by AirNav.

 

 
 

Would you like to see your business listed on this page?

 If your business provides an interesting product or service to pilots, flight crews, aircraft, or users of the Sam Riggs Airpark, you should consider listing it here.  To start the listing process, click on the button below
 
Add a business
 

Other Pages about Sam Riggs Airpark

www.samriggs.com
 
Update a link
 
Copyright © AirNav, LLC. All rights reserved. Privacy Policy  Contact